Etusivu
METAR-TAF:

METAR-TAF

Lentoasemat :

Lydd, Englanti

Leveyspiiri: 50-57N, Pituuspiiri: 000-56E, korkeus merenpinnasta: 3 m

Tämänhetkinen sää

Tämä raportti tehtiin 59 minuuttia sitten, kello 17.20 UTC
Tuuli 19 kn lounaasta
Lämpötila 20°C
Kosteus 83%
Ilmanpaine 1017 hPa
Näkyvyys 10 km tai enemmän
Muutamia pilviä 2400 ft:n korkeudessa

METAR: EGMD 151720Z 23019KT 9999 FEW024 20/17 Q1017

Aika: 19:19 (18:19 UTC)

Sääennuste

Tämä raportti tehtiin 1 tunti ja 19 minuuttia sitten, kello 17.00 UTC
Ennuste voimassa 15. päivästä klo 18 UTC - 16. päivään klo 03 UTC
Tuuli 16 kn lännestä/lounaasta
Näkyvyys 10 km tai enemmän
Hajanaisia pilviä 2500 ft:n korkeudessa
Todennäköisyys 30% :
Ajoittain
15. päivästä klo 20 UTC - 16. päivään klo 03 UTC
Hajonneita pilviä 1400 ft:n korkeudessa

TAF: EGMD 151700Z 1518/1603 24016KT 9999 SCT025 PROB30 TEMPO 1520/1603 BKN014

Säähavainnot ja -ennusteet yli 4000 lentoasemalta (METAR- ja TAF-raportit).

Käytössä olevat sääasemat on merkitty karttaan keltaisilla ja punaisilla pisteillä.

Aseta hiiri pisteen päälle nähdäksesi sääaseman nimen.

Klikkaa sitten nähdäksesi säähavainnot ja -ennusteet.

Kartan vaihtaminen: klikkaa mustalla rastilla varustettuja vihreitä pisteitä, niin voit zoomata sisään; viivalla varustettua vihreää pistettä, niin voit zoomata ulos tai vihreitä nuolia, niin pääset viereisille kartoille.


METAR-TAF: